WetterOnline ( https://www.wetteronline.de )

Wetter aktuell Glückstadt

Aktuelles Wetter: Quickborn (17m)

6-stündlich | Neueste Meldungen
Ortszeit Temperatur Wetter
Mi, 23.09. 14:00 21.7° C leicht bewölkt
Mi, 23.09. 8:00 4.9° C Nebel
Mi, 23.09. 2:00 6.1° C Nebel
Di, 22.09. 20:00 13.2° C wolkenlos
Di, 22.09. 14:00 23.4° C wolkenlos
Di, 22.09. 8:00 5.3° C fast wolkenlos
Di, 22.09. 2:00 6.7° C wolkenlos
Mo, 21.09. 20:00 12.4° C wolkenlos
Ortszeit Temperatur Wetter
Mi, 23.09. 14:30 22.2° C leicht bewölkt
Mi, 23.09. 14:20 22.2° C leicht bewölkt
Mi, 23.09. 14:10 21.9° C leicht bewölkt
Mi, 23.09. 14:00 21.7° C leicht bewölkt
Mi, 23.09. 13:50 21.7° C leicht bewölkt
Mi, 23.09. 13:40 21.4° C fast wolkenlos
Mi, 23.09. 13:30 20.9° C wolkig
Mi, 23.09. 13:00 19.4° C wolkig
Mi, 23.09. 12:30 18.8° C wolkig
Mi, 23.09. 12:00 18.3° C wolkig
Mi, 23.09. 11:30 18.0° C bedeckt
Mi, 23.09. 11:00 17.2° C bedeckt
Ortszeit Relative Feuchte Sichtweite
Mi, 23.09. 14:00 51% 14 km
Mi, 23.09. 8:00 99% 0.3 km
Mi, 23.09. 2:00 99% 100 m
Di, 22.09. 20:00 92% 10 km
Di, 22.09. 14:00 47% 35 km
Di, 22.09. 8:00 98% 1.2 km
Di, 22.09. 2:00 99% 5.0 km
Mo, 21.09. 20:00 88% 26 km
Ortszeit Relative Feuchte Sichtweite
Mi, 23.09. 14:30 47% 19 km
Mi, 23.09. 14:20 47% -
Mi, 23.09. 14:10 49% -
Mi, 23.09. 14:00 51% 14 km
Mi, 23.09. 13:50 51% -
Mi, 23.09. 13:40 51% -
Mi, 23.09. 13:30 54% 13 km
Mi, 23.09. 13:00 57% 14 km
Mi, 23.09. 12:30 60% 14 km
Mi, 23.09. 12:00 63% 13 km
Mi, 23.09. 11:30 66% 16 km
Mi, 23.09. 11:00 69% 16 km
Ortszeit Niederschlagsmenge Niederschlagsart
Mi, 23.09. 14:00 0.0 l/m2 in 6 Std. -
Mi, 23.09. 8:00 0.0 l/m2 in 12 Std. -
Mi, 23.09. 2:00 0.0 l/m2 in 6 Std. -
Di, 22.09. 20:00 0.0 l/m2 in 12 Std. -
Di, 22.09. 14:00 0.0 l/m2 in 6 Std. -
Di, 22.09. 8:00 0.0 l/m2 in 12 Std. -
Di, 22.09. 2:00 0.0 l/m2 in 6 Std. -
Mo, 21.09. 20:00 0.0 l/m2 in 12 Std. -
Ortszeit Niederschlagsmenge Niederschlagsart
Mi, 23.09. 14:30 0.0 l/m2 in 1 Std. -
Mi, 23.09. 14:20 keine Meldung -
Mi, 23.09. 14:10 keine Meldung -
Mi, 23.09. 14:00 0.0 l/m2 in 1 Std. -
Mi, 23.09. 13:50 keine Meldung -
Mi, 23.09. 13:40 keine Meldung -
Mi, 23.09. 13:30 0.0 l/m2 in 1 Std. -
Mi, 23.09. 13:00 0.0 l/m2 in 1 Std. -
Mi, 23.09. 12:30 0.0 l/m2 in 1 Std. -
Mi, 23.09. 12:00 0.0 l/m2 in 1 Std. -
Mi, 23.09. 11:30 0.0 l/m2 in 1 Std. -
Mi, 23.09. 11:00 0.0 l/m2 in 1 Std. -
Ortszeit Stärke Spitze Richtung
km/h Bft. km/h Grad Sektor
Mi, 23.09. 14:00 11 2 22 220° SW
Mi, 23.09. 8:00 0 0 4 - -
Mi, 23.09. 2:00 0 0 4 - -
Di, 22.09. 20:00 0 0 18 - -
Di, 22.09. 14:00 7 2 14 220° SW
Di, 22.09. 8:00 0 0 4 - -
Di, 22.09. 2:00 0 0 4 - -
Mo, 21.09. 20:00 0 0 18 - -
Ortszeit Stärke Spitze Richtung
km/h Bft. km/h Grad Sektor
Mi, 23.09. 14:30 13 3 22 210° SW
Mi, 23.09. 14:20 13 3 - 210° SW
Mi, 23.09. 14:10 13 3 - 210° SW
Mi, 23.09. 14:00 11 2 22 220° SW
Mi, 23.09. 13:50 11 2 - 220° SW
Mi, 23.09. 13:40 11 2 - 190° S
Mi, 23.09. 13:30 9 2 15 210° SW
Mi, 23.09. 13:00 9 2 17 180° S
Mi, 23.09. 12:30 9 2 17 200° S
Mi, 23.09. 12:00 7 2 14 190° S
Mi, 23.09. 11:30 7 2 11 220° SW
Mi, 23.09. 11:00 7 2 14 180° S
Ortszeit Untergrenze Bedeckung Gattung
total tief tief mittel hoch
Mi, 23.09. 14:00 1800 m 2/8 2/8 - - -
Mi, 23.09. 8:00 <30 m 3/8 0/8 - - -
Mi, 23.09. 2:00 <30 m 1/8 0/8 - - -
Di, 22.09. 20:00 - 0/8 0/8 - - -
Di, 22.09. 14:00 - 0/8 0/8 - - -
Di, 22.09. 8:00 <30 m 1/8 0/8 - - -
Di, 22.09. 2:00 - 0/8 0/8 - - -
Mo, 21.09. 20:00 - 0/8 0/8 - - -
Ortszeit Bedeckungsgrad in Achtel und Wolkenuntergrenze
Mi, 23.09. 14:30 2(1800m)
Mi, 23.09. 14:20 2(1800m)
Mi, 23.09. 14:10 2(1800m)
Mi, 23.09. 14:00 2(1800m)
Mi, 23.09. 13:50 2(1800m)
Mi, 23.09. 13:40 1(1800m) 1(4500m)
Mi, 23.09. 13:30 5(4200m) 4(4200m)
Mi, 23.09. 13:00 1(1320m) 8(3900m)
Mi, 23.09. 12:30 1(1350m) 8(3900m)
Mi, 23.09. 12:00 2(1410m) 8(3900m)
Mi, 23.09. 11:30 8(4200m)
Mi, 23.09. 11:00 8(4200m)
Ortszeit Luftdruck NN (hPa) Tendenz (hPa in 3 Std.)
Mi, 23.09. 14:00 1004 - 0,7
Mi, 23.09. 8:00 1005 - 0,1
Mi, 23.09. 2:00 1006 - 1,1
Di, 22.09. 20:00 1007 - 1,3
Di, 22.09. 14:00 1010 - 1,2
Di, 22.09. 8:00 1012 - 0,8
Di, 22.09. 2:00 1014 - 1,1
Mo, 21.09. 20:00 1015 - 0,9
Ortszeit Luftdruck NN (hPa) Tendenz (hPa in 3 Std.)
Mi, 23.09. 14:30 1004 - 0,8
Mi, 23.09. 14:20 1004 keine Meldung
Mi, 23.09. 14:10 1004 keine Meldung
Mi, 23.09. 14:00 1004 - 0,7
Mi, 23.09. 13:50 1004 keine Meldung
Mi, 23.09. 13:40 1004 keine Meldung
Mi, 23.09. 13:30 1004 - 0,6
Mi, 23.09. 13:00 1004 - 0,2
Mi, 23.09. 12:30 1005 0,0
Mi, 23.09. 12:00 1005 0,0
Mi, 23.09. 11:30 1005 - 0,1
Mi, 23.09. 11:00 1005 + 0,2
Ortszeit Schneehöhe (cm)
Mi, 23.09. 14:00 -
Mi, 23.09. 8:00 -
Mi, 23.09. 2:00 -
Di, 22.09. 20:00 -
Di, 22.09. 14:00 -
Di, 22.09. 8:00 -
Di, 22.09. 2:00 -
Mo, 21.09. 20:00 -
Ortszeit Schneehöhe (cm)
Mi, 23.09. 14:30 -
Mi, 23.09. 14:20 -
Mi, 23.09. 14:10 -
Mi, 23.09. 14:00 -
Mi, 23.09. 13:50 -
Mi, 23.09. 13:40 -
Mi, 23.09. 13:30 -
Mi, 23.09. 13:00 -
Mi, 23.09. 12:30 -
Mi, 23.09. 12:00 -
Mi, 23.09. 11:30 -
Mi, 23.09. 11:00 -
Link zu dieser Seite / Seite empfehlen

Das Wetter in ...